Weather History for Peru, IL

Change the Weather History Date:

Sunday, May 19, 2013

  Actual Average Record
Temperature  
Mean Temperature 76 °F -  
Max Temperature 90 °F 77 °F 92 °F (1984)
Min Temperature 62 °F 51 °F 36 °F (1968)
Cooling Degree Days 10    
Growing Degree Days 26 (Base 50)    
Moisture  
Dew Point 62 °F    
Average Humidity 64    
Maximum Humidity 88    
Minimum Humidity 39    
Precipitation  
Precipitation 0.00 in - - ()
Sea Level Pressure  
Sea Level Pressure 29.85 in    
Wind  
Wind Speed 10 mph (SE)    
Max Wind Speed 22 mph    
Max Gust Speed 28 mph    
Visibility 9 miles    
Events      
Averages and records for this station are not official NWS values.
T = Trace of Precipitation, MM = Missing Value Source: NWS Daily Summary

Daily Weather History Graph

Daily Weather History Graph

Search for Another Location

Airport:

Trip Planner

Search our weather history database for the weather conditions in past years. The results will help you decide how hot, cold, wet, or windy it might be!

Date:

Astronomy

May. 19, 2013 Rise Set
Actual Time 5:33 AM CDT 8:12 PM CDT
Civil Twilight 5:02 AM CDT 8:44 PM CDT
Nautical Twilight 4:22 AM CDT 9:24 PM CDT
Astronomical Twilight 3:36 AM CDT 10:10 PM CDT
Moon 2:13 PM CDT (5/19) 2:01 AM CDT (5/19)
Length of Visible Light 15h 42m
Length of Day
14h 38m
Waxing Gibbous, 65% of the Moon is Illuminated
May 19
Waxing Gibbous
May 24
Full
May 31
Last Quarter
Jun 8
New
Jun 16
First Quarter

Hourly Weather History & Observations

Time (CDT) Temp. Heat Index Dew Point Humidity Pressure Visibility Wind Dir Wind Speed Gust Speed Precip Events Conditions
12:15 AM 68.5 °F - 61.0 °F 77% 29.93 in 10.0 mi ESE 8.1 mph - N/A   Clear
12:35 AM 68.4 °F - 60.8 °F 77% 29.92 in 10.0 mi ESE 9.2 mph - N/A   Clear
12:55 AM 68.2 °F - 60.8 °F 77% 29.93 in 10.0 mi SE 8.1 mph - N/A   Clear
1:15 AM 67.8 °F - 60.3 °F 77% 29.92 in 10.0 mi SE 8.1 mph - N/A   Clear
1:35 AM 68.0 °F - 60.3 °F 76% 29.93 in 10.0 mi SSE 9.2 mph - N/A   Clear
1:55 AM 67.5 °F - 60.3 °F 78% 29.93 in 10.0 mi SSE 8.1 mph - N/A   Clear
2:15 AM 67.1 °F - 60.1 °F 78% 29.92 in 10.0 mi SSE 8.1 mph - N/A   Clear
2:35 AM 66.2 °F - 59.9 °F 80% 29.93 in 10.0 mi SSE 5.8 mph - N/A   Clear
2:55 AM 65.7 °F - 59.9 °F 82% 29.93 in 10.0 mi SE 5.8 mph - N/A   Clear
3:15 AM 65.7 °F - 59.9 °F 82% 29.93 in 10.0 mi SE 6.9 mph - N/A   Clear
3:35 AM 65.7 °F - 60.1 °F 82% 29.92 in 10.0 mi SSE 8.1 mph - N/A   Clear
3:55 AM 65.7 °F - 60.1 °F 82% 29.92 in 10.0 mi SE 6.9 mph - N/A   Clear
4:15 AM 65.8 °F - 60.6 °F 83% 29.91 in 10.0 mi ESE 8.1 mph - N/A   Clear
4:35 AM 65.3 °F - 60.3 °F 84% 29.91 in 7.0 mi SE 5.8 mph - N/A   Clear
4:55 AM 65.3 °F - 60.4 °F 84% 29.92 in 10.0 mi SSE 5.8 mph - N/A   Clear
5:15 AM 63.9 °F - 59.4 °F 85% 29.93 in 7.0 mi SSW 6.9 mph - N/A   Clear
5:35 AM 62.6 °F - 58.8 °F 87% 29.93 in 5.0 mi South 5.8 mph - N/A   Clear
5:55 AM 62.6 °F - 59.0 °F 88% 29.94 in 5.0 mi SSE 4.6 mph - N/A   Clear
6:15 AM 62.6 °F - 59.0 °F 88% 29.94 in 5.0 mi ESE 3.5 mph - N/A   Clear
6:35 AM 63.5 °F - 59.9 °F 88% 29.93 in 5.0 mi East 5.8 mph - N/A   Clear
6:55 AM 64.4 °F - 60.8 °F 88% 29.91 in 4.0 mi East 9.2 mph - N/A   Clear
7:15 AM 66.4 °F - 61.7 °F 85% 29.91 in 5.0 mi SE 9.2 mph - N/A   Clear
7:35 AM 67.6 °F - 61.9 °F 82% 29.92 in 5.0 mi SE 6.9 mph - N/A   Haze
7:55 AM 68.7 °F - 62.2 °F 80% 29.93 in 7.0 mi South 3.5 mph - N/A   Clear
8:15 AM 69.8 °F - 62.6 °F 78% 29.93 in 7.0 mi SSW 3.5 mph - N/A   Clear
8:55 AM 72.7 °F - 63.3 °F 72% 29.93 in 7.0 mi SSE 6.9 mph - N/A   Clear
9:35 AM 76.3 °F - 63.0 °F 63% 29.91 in 10.0 mi ESE 10.4 mph - N/A   Clear
9:55 AM 77.0 °F - 63.3 °F 63% 29.90 in 10.0 mi ESE 10.4 mph - N/A   Clear
10:15 AM 77.9 °F - 63.0 °F 60% 29.89 in 10.0 mi SE 11.5 mph - N/A   Clear
10:35 AM 78.4 °F - 62.6 °F 58% 29.89 in 10.0 mi ESE 11.5 mph 16.1 mph N/A   Clear
10:55 AM 80.2 °F 81.5 °F 62.8 °F 55% 29.89 in 10.0 mi SE 11.5 mph - N/A   Clear
11:15 AM 80.6 °F 81.4 °F 60.6 °F 50% 29.89 in 10.0 mi SE 12.7 mph - N/A   Clear
11:35 AM 81.0 °F 81.7 °F 61.0 °F 50% 29.89 in 10.0 mi SE 12.7 mph - N/A   Clear
11:55 AM 81.3 °F 82.2 °F 61.3 °F 51% 29.89 in 10.0 mi SE 12.7 mph 16.1 mph N/A   Clear
12:15 PM 82.8 °F 83.4 °F 62.1 °F 49% 29.88 in 10.0 mi SSE 11.5 mph 18.4 mph N/A   Clear
12:35 PM 83.7 °F 84.1 °F 61.7 °F 47% 29.86 in 10.0 mi SE 12.7 mph 21.9 mph N/A   Clear
12:55 PM 85.5 °F 85.9 °F 61.9 °F 45% 29.87 in 10.0 mi South 15.0 mph 20.7 mph N/A   Clear
1:15 PM 85.3 °F 85.7 °F 61.7 °F 45% 29.87 in 10.0 mi South 11.5 mph 19.6 mph N/A   Mostly Cloudy
1:35 PM 83.7 °F 84.5 °F 62.8 °F 49% 29.87 in 10.0 mi South 16.1 mph 19.6 mph N/A   Overcast
1:55 PM 84.2 °F 85.6 °F 64.4 °F 51% 29.84 in 10.0 mi South 11.5 mph 17.3 mph N/A   Mostly Cloudy
2:15 PM 86.4 °F 87.6 °F 64.0 °F 47% 29.82 in 10.0 mi SSE 12.7 mph 18.4 mph N/A   Scattered Clouds
2:35 PM 87.8 °F 89.1 °F 64.2 °F 45% 29.80 in 10.0 mi SSE 18.4 mph 21.9 mph N/A   Clear
2:55 PM 88.0 °F 89.0 °F 63.7 °F 44% 29.77 in 10.0 mi SSE 18.4 mph 21.9 mph N/A   Clear
3:15 PM 88.0 °F 88.7 °F 63.1 °F 43% 29.73 in 10.0 mi ESE 17.3 mph 26.5 mph N/A   Clear
3:35 PM 88.3 °F 89.2 °F 63.3 °F 43% 29.73 in 10.0 mi SE 18.4 mph 25.3 mph N/A   Clear
3:55 PM 88.7 °F 89.4 °F 63.0 °F 42% 29.75 in 10.0 mi ESE 17.3 mph - N/A   Clear
4:15 PM 88.9 °F 89.7 °F 63.1 °F 42% 29.75 in 10.0 mi SE 16.1 mph 25.3 mph N/A   Clear
4:35 PM 89.6 °F 90.1 °F 62.4 °F 40% 29.75 in 10.0 mi SE 18.4 mph 23.0 mph N/A   Clear
4:55 PM 89.8 °F 90.0 °F 61.5 °F 39% 29.75 in 10.0 mi South 17.3 mph - N/A   Scattered Clouds
5:15 PM 88.9 °F 89.4 °F 62.1 °F 41% 29.75 in 10.0 mi South 17.3 mph - N/A   Scattered Clouds
5:35 PM 88.5 °F 89.2 °F 62.6 °F 42% 29.74 in 10.0 mi SSE 18.4 mph 24.2 mph N/A   Scattered Clouds
5:55 PM 88.9 °F 89.7 °F 62.8 °F 42% 29.72 in 10.0 mi SSE 21.9 mph 27.6 mph N/A   Scattered Clouds
6:15 PM 88.0 °F 88.7 °F 63.0 °F 43% 29.72 in 10.0 mi South 19.6 mph 26.5 mph N/A   Scattered Clouds
6:35 PM 87.3 °F 88.0 °F 63.0 °F 44% 29.73 in 10.0 mi South 15.0 mph 25.3 mph N/A   Scattered Clouds
7:15 PM 86.0 °F 87.3 °F 64.4 °F 48% 29.75 in 10.0 mi South 18.4 mph 21.9 mph N/A   Scattered Clouds
7:55 PM 84.4 °F 86.3 °F 65.5 °F 53% 29.77 in 10.0 mi South 13.8 mph - N/A   Scattered Clouds
8:35 PM 82.6 °F 84.9 °F 66.4 °F 58% 29.78 in 10.0 mi WSW 6.9 mph - N/A   Scattered Clouds
9:15 PM 72.7 °F - 58.8 °F 62% 29.78 in 10.0 mi NNW 8.1 mph - N/A   Overcast
9:35 PM 71.6 °F - 59.4 °F 65% 29.78 in 10.0 mi NNE 10.4 mph - N/A   Mostly Cloudy
9:55 PM 71.2 °F - 59.9 °F 67% 29.77 in 10.0 mi NE 8.1 mph - N/A   Mostly Cloudy
10:15 PM 71.6 °F - 59.9 °F 66% 29.76 in 10.0 mi ENE 6.9 mph - N/A   Mostly Cloudy
10:35 PM 71.6 °F - 59.9 °F 66% 29.75 in 10.0 mi East 9.2 mph - N/A   Mostly Cloudy
10:55 PM 71.6 °F - 60.8 °F 69% 29.74 in 10.0 mi East 10.4 mph - N/A   Mostly Cloudy
11:15 PM 73.9 °F - 62.1 °F 66% 29.76 in 10.0 mi ESE 8.1 mph - N/A   Scattered Clouds
11:35 PM 75.4 °F - 65.8 °F 72% 29.77 in 10.0 mi SSE 11.5 mph - N/A   Clear
11:55 PM 77.7 °F - 68.9 °F 74% 29.77 in 7.0 mi South 15.0 mph - N/A   Clear